sensor_id;sensor_type;location;lat;lon;timestamp;P1;durP1;ratioP1;P2;durP2;ratioP2
14396;SDS011;50653;47.810;13.022;2023-08-24T00:02:02;11.30;;;10.30;;
14396;SDS011;50653;47.810;13.022;2023-08-24T00:04:28;10.60;;;10.00;;
14396;SDS011;50653;47.810;13.022;2023-08-24T00:06:54;10.90;;;10.00;;
14396;SDS011;50653;47.810;13.022;2023-08-24T00:09:20;10.50;;;9.70;;
14396;SDS011;50653;47.810;13.022;2023-08-24T00:11:46;11.50;;;10.67;;
14396;SDS011;50653;47.810;13.022;2023-08-24T00:14:11;11.60;;;10.50;;
14396;SDS011;50653;47.810;13.022;2023-08-24T00:16:37;11.50;;;10.50;;
14396;SDS011;50653;47.810;13.022;2023-08-24T00:19:03;10.37;;;9.47;;
14396;SDS011;50653;47.810;13.022;2023-08-24T00:21:29;9.97;;;9.17;;
14396;SDS011;50653;47.810;13.022;2023-08-24T00:23:55;11.20;;;10.30;;
14396;SDS011;50653;47.810;13.022;2023-08-24T00:26:20;11.50;;;10.17;;
14396;SDS011;50653;47.810;13.022;2023-08-24T00:28:46;11.30;;;10.40;;
14396;SDS011;50653;47.810;13.022;2023-08-24T00:31:12;12.27;;;11.20;;
14396;SDS011;50653;47.810;13.022;2023-08-24T00:33:38;10.90;;;9.90;;
14396;SDS011;50653;47.810;13.022;2023-08-24T00:36:05;12.47;;;10.10;;
14396;SDS011;50653;47.810;13.022;2023-08-24T00:38:30;11.00;;;10.13;;
14396;SDS011;50653;47.810;13.022;2023-08-24T00:40:57;11.70;;;10.73;;
14396;SDS011;50653;47.810;13.022;2023-08-24T00:43:24;12.50;;;11.20;;
14396;SDS011;50653;47.810;13.022;2023-08-24T00:45:51;10.80;;;10.00;;
14396;SDS011;50653;47.810;13.022;2023-08-24T00:48:20;10.87;;;9.87;;
14396;SDS011;50653;47.810;13.022;2023-08-24T00:50:51;15.73;;;9.93;;
14396;SDS011;50653;47.810;13.022;2023-08-24T00:53:18;10.40;;;9.57;;
14396;SDS011;50653;47.810;13.022;2023-08-24T00:55:44;10.50;;;9.60;;
14396;SDS011;50653;47.810;13.022;2023-08-24T00:58:11;11.80;;;10.83;;
14396;SDS011;50653;47.810;13.022;2023-08-24T01:00:39;11.10;;;10.13;;
14396;SDS011;50653;47.810;13.022;2023-08-24T01:03:06;10.93;;;10.03;;
14396;SDS011;50653;47.810;13.022;2023-08-24T01:05:32;11.20;;;10.20;;
14396;SDS011;50653;47.810;13.022;2023-08-24T01:07:57;10.83;;;10.03;;
14396;SDS011;50653;47.810;13.022;2023-08-24T01:10:23;11.63;;;10.57;;
14396;SDS011;50653;47.810;13.022;2023-08-24T01:13:09;11.37;;;10.53;;
14396;SDS011;50653;47.810;13.022;2023-08-24T01:18:16;11.03;;;10.10;;
14396;SDS011;50653;47.810;13.022;2023-08-24T01:20:45;10.67;;;10.00;;
14396;SDS011;50653;47.810;13.022;2023-08-24T01:28:41;12.13;;;10.03;;
14396;SDS011;50653;47.810;13.022;2023-08-24T01:31:09;11.60;;;10.60;;
14396;SDS011;50653;47.810;13.022;2023-08-24T01:33:35;10.30;;;9.60;;
14396;SDS011;50653;47.810;13.022;2023-08-24T01:36:01;18.33;;;10.77;;
14396;SDS011;50653;47.810;13.022;2023-08-24T01:38:27;10.13;;;9.43;;
14396;SDS011;50653;47.810;13.022;2023-08-24T01:40:55;11.10;;;10.00;;
14396;SDS011;50653;47.810;13.022;2023-08-24T01:43:36;14.97;;;10.43;;
14396;SDS011;50653;47.810;13.022;2023-08-24T01:46:04;9.33;;;8.67;;
14396;SDS011;50653;47.810;13.022;2023-08-24T01:48:32;12.33;;;9.30;;
14396;SDS011;50653;47.810;13.022;2023-08-24T01:50:58;10.27;;;9.40;;
14396;SDS011;50653;47.810;13.022;2023-08-24T01:53:26;11.23;;;10.23;;
14396;SDS011;50653;47.810;13.022;2023-08-24T01:55:52;11.00;;;10.00;;
14396;SDS011;50653;47.810;13.022;2023-08-24T01:58:18;11.43;;;10.27;;
14396;SDS011;50653;47.810;13.022;2023-08-24T02:00:45;9.90;;;9.20;;
14396;SDS011;50653;47.810;13.022;2023-08-24T02:03:11;10.27;;;9.33;;
14396;SDS011;50653;47.810;13.022;2023-08-24T02:05:37;11.00;;;9.90;;
14396;SDS011;50653;47.810;13.022;2023-08-24T02:08:03;11.13;;;10.43;;
14396;SDS011;50653;47.810;13.022;2023-08-24T02:10:29;11.70;;;10.53;;
14396;SDS011;50653;47.810;13.022;2023-08-24T02:12:54;10.80;;;9.77;;
14396;SDS011;50653;47.810;13.022;2023-08-24T02:15:20;10.47;;;9.47;;
14396;SDS011;50653;47.810;13.022;2023-08-24T02:17:46;12.70;;;10.27;;
14396;SDS011;50653;47.810;13.022;2023-08-24T02:20:11;13.43;;;10.43;;
14396;SDS011;50653;47.810;13.022;2023-08-24T02:22:37;10.47;;;9.50;;
14396;SDS011;50653;47.810;13.022;2023-08-24T02:25:04;10.10;;;9.40;;
14396;SDS011;50653;47.810;13.022;2023-08-24T02:27:31;12.13;;;10.13;;
14396;SDS011;50653;47.810;13.022;2023-08-24T02:29:58;9.50;;;8.80;;
14396;SDS011;50653;47.810;13.022;2023-08-24T02:32:24;9.97;;;9.20;;
14396;SDS011;50653;47.810;13.022;2023-08-24T02:34:50;11.53;;;10.53;;
14396;SDS011;50653;47.810;13.022;2023-08-24T02:37:16;13.20;;;10.43;;
14396;SDS011;50653;47.810;13.022;2023-08-24T02:39:42;10.17;;;9.37;;
14396;SDS011;50653;47.810;13.022;2023-08-24T02:42:09;9.83;;;9.03;;
14396;SDS011;50653;47.810;13.022;2023-08-24T02:44:34;12.30;;;10.30;;
14396;SDS011;50653;47.810;13.022;2023-08-24T02:47:02;11.33;;;10.40;;
14396;SDS011;50653;47.810;13.022;2023-08-24T02:49:28;9.17;;;8.33;;
14396;SDS011;50653;47.810;13.022;2023-08-24T02:51:53;10.10;;;9.20;;
14396;SDS011;50653;47.810;13.022;2023-08-24T02:54:19;12.40;;;9.43;;
14396;SDS011;50653;47.810;13.022;2023-08-24T02:56:44;9.40;;;8.70;;
14396;SDS011;50653;47.810;13.022;2023-08-24T02:59:11;9.40;;;8.53;;
14396;SDS011;50653;47.810;13.022;2023-08-24T03:01:36;10.80;;;9.70;;
14396;SDS011;50653;47.810;13.022;2023-08-24T03:04:03;10.73;;;9.73;;
14396;SDS011;50653;47.810;13.022;2023-08-24T03:06:30;9.40;;;8.70;;
14396;SDS011;50653;47.810;13.022;2023-08-24T03:08:55;10.50;;;9.00;;
14396;SDS011;50653;47.810;13.022;2023-08-24T03:11:22;10.30;;;9.60;;
14396;SDS011;50653;47.810;13.022;2023-08-24T03:13:47;9.80;;;9.20;;
14396;SDS011;50653;47.810;13.022;2023-08-24T03:16:13;14.20;;;10.33;;
14396;SDS011;50653;47.810;13.022;2023-08-24T03:18:39;9.50;;;8.80;;
14396;SDS011;50653;47.810;13.022;2023-08-24T03:21:05;9.83;;;9.10;;
14396;SDS011;50653;47.810;13.022;2023-08-24T03:23:33;10.07;;;9.33;;
14396;SDS011;50653;47.810;13.022;2023-08-24T03:25:59;8.60;;;8.10;;
14396;SDS011;50653;47.810;13.022;2023-08-24T03:28:24;9.97;;;9.17;;
14396;SDS011;50653;47.810;13.022;2023-08-24T03:30:51;9.77;;;9.20;;
14396;SDS011;50653;47.810;13.022;2023-08-24T03:33:17;9.33;;;8.60;;
14396;SDS011;50653;47.810;13.022;2023-08-24T03:35:44;12.70;;;10.30;;
14396;SDS011;50653;47.810;13.022;2023-08-24T03:38:10;10.60;;;9.80;;
14396;SDS011;50653;47.810;13.022;2023-08-24T03:40:36;12.03;;;10.83;;
14396;SDS011;50653;47.810;13.022;2023-08-24T03:43:02;10.13;;;9.43;;
14396;SDS011;50653;47.810;13.022;2023-08-24T03:45:28;13.93;;;10.27;;
14396;SDS011;50653;47.810;13.022;2023-08-24T03:47:54;16.17;;;11.33;;
14396;SDS011;50653;47.810;13.022;2023-08-24T03:50:21;9.30;;;8.50;;
14396;SDS011;50653;47.810;13.022;2023-08-24T03:52:48;10.30;;;9.40;;
14396;SDS011;50653;47.810;13.022;2023-08-24T03:55:15;11.37;;;10.47;;
14396;SDS011;50653;47.810;13.022;2023-08-24T03:57:42;13.10;;;10.23;;
14396;SDS011;50653;47.810;13.022;2023-08-24T04:00:08;11.00;;;9.53;;
14396;SDS011;50653;47.810;13.022;2023-08-24T04:02:42;10.60;;;9.57;;
14396;SDS011;50653;47.810;13.022;2023-08-24T04:05:12;10.33;;;9.33;;
14396;SDS011;50653;47.810;13.022;2023-08-24T04:07:37;10.67;;;9.50;;
14396;SDS011;50653;47.810;13.022;2023-08-24T04:10:05;11.30;;;10.37;;
14396;SDS011;50653;47.810;13.022;2023-08-24T04:12:31;11.50;;;10.37;;
14396;SDS011;50653;47.810;13.022;2023-08-24T04:14:57;12.20;;;10.90;;
14396;SDS011;50653;47.810;13.022;2023-08-24T04:17:24;11.03;;;10.13;;
14396;SDS011;50653;47.810;13.022;2023-08-24T04:19:50;12.93;;;10.90;;
14396;SDS011;50653;47.810;13.022;2023-08-24T04:22:15;13.40;;;9.53;;
14396;SDS011;50653;47.810;13.022;2023-08-24T04:24:41;10.13;;;9.43;;
14396;SDS011;50653;47.810;13.022;2023-08-24T04:27:07;12.60;;;9.90;;
14396;SDS011;50653;47.810;13.022;2023-08-24T04:29:33;9.90;;;9.13;;
14396;SDS011;50653;47.810;13.022;2023-08-24T04:31:58;10.63;;;9.83;;
14396;SDS011;50653;47.810;13.022;2023-08-24T04:34:24;10.93;;;9.93;;
14396;SDS011;50653;47.810;13.022;2023-08-24T04:36:49;12.33;;;11.00;;
14396;SDS011;50653;47.810;13.022;2023-08-24T04:39:15;11.07;;;10.20;;
14396;SDS011;50653;47.810;13.022;2023-08-24T04:41:41;11.03;;;10.07;;
14396;SDS011;50653;47.810;13.022;2023-08-24T04:44:07;12.07;;;10.83;;
14396;SDS011;50653;47.810;13.022;2023-08-24T04:46:33;11.40;;;10.30;;
14396;SDS011;50653;47.810;13.022;2023-08-24T04:48:59;12.40;;;9.80;;
14396;SDS011;50653;47.810;13.022;2023-08-24T04:51:24;11.50;;;10.40;;
14396;SDS011;50653;47.810;13.022;2023-08-24T04:53:52;12.87;;;11.80;;
14396;SDS011;50653;47.810;13.022;2023-08-24T04:56:19;10.53;;;9.83;;
14396;SDS011;50653;47.810;13.022;2023-08-24T04:58:54;10.43;;;9.60;;
14396;SDS011;50653;47.810;13.022;2023-08-24T05:01:22;10.93;;;10.03;;
14396;SDS011;50653;47.810;13.022;2023-08-24T05:03:51;16.13;;;11.97;;
14396;SDS011;50653;47.810;13.022;2023-08-24T05:06:17;12.00;;;10.83;;
14396;SDS011;50653;47.810;13.022;2023-08-24T05:08:44;9.83;;;9.10;;
14396;SDS011;50653;47.810;13.022;2023-08-24T05:11:10;10.80;;;9.70;;
14396;SDS011;50653;47.810;13.022;2023-08-24T05:13:45;10.07;;;9.33;;
14396;SDS011;50653;47.810;13.022;2023-08-24T05:16:13;11.23;;;10.10;;
14396;SDS011;50653;47.810;13.022;2023-08-24T05:18:39;16.03;;;11.30;;
14396;SDS011;50653;47.810;13.022;2023-08-24T05:21:05;12.37;;;10.97;;
14396;SDS011;50653;47.810;13.022;2023-08-24T05:23:32;10.27;;;9.43;;
14396;SDS011;50653;47.810;13.022;2023-08-24T05:25:58;12.90;;;10.03;;
14396;SDS011;50653;47.810;13.022;2023-08-24T05:28:28;22.27;;;10.90;;
14396;SDS011;50653;47.810;13.022;2023-08-24T05:30:55;11.10;;;10.00;;
14396;SDS011;50653;47.810;13.022;2023-08-24T05:33:24;12.70;;;9.90;;
14396;SDS011;50653;47.810;13.022;2023-08-24T05:35:51;11.93;;;10.77;;
14396;SDS011;50653;47.810;13.022;2023-08-24T05:38:17;10.60;;;9.80;;
14396;SDS011;50653;47.810;13.022;2023-08-24T05:40:43;12.10;;;11.20;;
14396;SDS011;50653;47.810;13.022;2023-08-24T05:43:12;12.03;;;10.70;;
14396;SDS011;50653;47.810;13.022;2023-08-24T05:45:38;20.80;;;9.53;;
14396;SDS011;50653;47.810;13.022;2023-08-24T05:48:09;10.60;;;9.60;;
14396;SDS011;50653;47.810;13.022;2023-08-24T05:50:36;16.33;;;10.63;;
14396;SDS011;50653;47.810;13.022;2023-08-24T05:53:03;11.17;;;10.17;;
14396;SDS011;50653;47.810;13.022;2023-08-24T05:55:29;10.73;;;9.60;;
14396;SDS011;50653;47.810;13.022;2023-08-24T05:57:54;10.90;;;9.90;;
14396;SDS011;50653;47.810;13.022;2023-08-24T06:00:20;9.20;;;8.60;;
14396;SDS011;50653;47.810;13.022;2023-08-24T06:02:47;10.40;;;9.70;;
14396;SDS011;50653;47.810;13.022;2023-08-24T06:05:13;11.17;;;10.20;;
14396;SDS011;50653;47.810;13.022;2023-08-24T06:07:38;9.67;;;8.87;;
14396;SDS011;50653;47.810;13.022;2023-08-24T06:10:04;10.30;;;9.60;;
14396;SDS011;50653;47.810;13.022;2023-08-24T06:12:30;9.93;;;9.03;;
14396;SDS011;50653;47.810;13.022;2023-08-24T06:14:56;10.43;;;9.50;;
14396;SDS011;50653;47.810;13.022;2023-08-24T06:17:22;9.87;;;9.27;;
14396;SDS011;50653;47.810;13.022;2023-08-24T06:19:50;9.23;;;8.43;;
14396;SDS011;50653;47.810;13.022;2023-08-24T06:22:16;10.37;;;9.37;;
14396;SDS011;50653;47.810;13.022;2023-08-24T06:24:41;9.57;;;8.97;;
14396;SDS011;50653;47.810;13.022;2023-08-24T06:27:07;13.70;;;10.60;;
14396;SDS011;50653;47.810;13.022;2023-08-24T06:29:33;10.67;;;9.60;;
14396;SDS011;50653;47.810;13.022;2023-08-24T06:31:59;11.47;;;10.40;;
14396;SDS011;50653;47.810;13.022;2023-08-24T06:34:25;11.10;;;10.30;;
14396;SDS011;50653;47.810;13.022;2023-08-24T06:36:50;11.30;;;10.20;;
14396;SDS011;50653;47.810;13.022;2023-08-24T06:39:18;11.97;;;11.07;;
14396;SDS011;50653;47.810;13.022;2023-08-24T06:41:44;11.07;;;9.43;;
14396;SDS011;50653;47.810;13.022;2023-08-24T06:44:10;11.77;;;10.10;;
14396;SDS011;50653;47.810;13.022;2023-08-24T06:46:35;12.67;;;9.70;;
14396;SDS011;50653;47.810;13.022;2023-08-24T06:49:01;10.60;;;9.50;;
14396;SDS011;50653;47.810;13.022;2023-08-24T06:51:28;8.97;;;8.40;;
14396;SDS011;50653;47.810;13.022;2023-08-24T06:53:59;10.77;;;9.70;;
14396;SDS011;50653;47.810;13.022;2023-08-24T06:56:25;9.70;;;9.10;;
14396;SDS011;50653;47.810;13.022;2023-08-24T06:58:53;10.00;;;9.10;;
14396;SDS011;50653;47.810;13.022;2023-08-24T07:01:19;14.43;;;9.27;;
14396;SDS011;50653;47.810;13.022;2023-08-24T07:03:44;11.93;;;9.93;;
14396;SDS011;50653;47.810;13.022;2023-08-24T07:06:14;11.23;;;9.63;;
14396;SDS011;50653;47.810;13.022;2023-08-24T07:08:39;10.83;;;9.90;;
14396;SDS011;50653;47.810;13.022;2023-08-24T07:11:05;9.43;;;8.30;;
14396;SDS011;50653;47.810;13.022;2023-08-24T07:13:30;10.60;;;9.80;;
14396;SDS011;50653;47.810;13.022;2023-08-24T07:16:00;10.67;;;8.93;;
14396;SDS011;50653;47.810;13.022;2023-08-24T07:18:28;9.40;;;8.70;;
14396;SDS011;50653;47.810;13.022;2023-08-24T07:20:54;11.63;;;9.30;;
14396;SDS011;50653;47.810;13.022;2023-08-24T07:23:19;10.93;;;9.77;;
14396;SDS011;50653;47.810;13.022;2023-08-24T07:25:45;10.63;;;9.83;;
14396;SDS011;50653;47.810;13.022;2023-08-24T07:28:10;9.60;;;8.70;;
14396;SDS011;50653;47.810;13.022;2023-08-24T07:30:36;9.13;;;8.43;;
14396;SDS011;50653;47.810;13.022;2023-08-24T07:33:02;16.70;;;9.13;;
14396;SDS011;50653;47.810;13.022;2023-08-24T07:35:28;9.33;;;8.63;;
14396;SDS011;50653;47.810;13.022;2023-08-24T07:37:54;10.00;;;9.40;;
14396;SDS011;50653;47.810;13.022;2023-08-24T07:40:21;8.60;;;8.10;;
14396;SDS011;50653;47.810;13.022;2023-08-24T07:42:47;10.67;;;9.80;;
14396;SDS011;50653;47.810;13.022;2023-08-24T07:45:15;18.47;;;9.83;;
14396;SDS011;50653;47.810;13.022;2023-08-24T07:47:42;10.43;;;9.43;;
14396;SDS011;50653;47.810;13.022;2023-08-24T07:50:08;13.80;;;9.00;;
14396;SDS011;50653;47.810;13.022;2023-08-24T07:52:35;9.10;;;8.37;;
14396;SDS011;50653;47.810;13.022;2023-08-24T07:55:01;16.93;;;9.70;;
14396;SDS011;50653;47.810;13.022;2023-08-24T07:57:29;10.97;;;10.10;;
14396;SDS011;50653;47.810;13.022;2023-08-24T07:59:56;11.13;;;10.10;;
14396;SDS011;50653;47.810;13.022;2023-08-24T08:02:23;10.53;;;9.20;;
14396;SDS011;50653;47.810;13.022;2023-08-24T08:04:48;11.30;;;10.40;;
14396;SDS011;50653;47.810;13.022;2023-08-24T08:07:14;9.50;;;8.60;;
14396;SDS011;50653;47.810;13.022;2023-08-24T08:09:40;10.27;;;9.40;;
14396;SDS011;50653;47.810;13.022;2023-08-24T08:12:05;11.40;;;10.27;;
14396;SDS011;50653;47.810;13.022;2023-08-24T08:14:31;11.20;;;10.23;;
14396;SDS011;50653;47.810;13.022;2023-08-24T08:16:56;10.20;;;9.27;;
14396;SDS011;50653;47.810;13.022;2023-08-24T08:19:22;10.43;;;9.60;;
14396;SDS011;50653;47.810;13.022;2023-08-24T08:21:50;9.87;;;9.07;;
14396;SDS011;50653;47.810;13.022;2023-08-24T08:24:16;9.53;;;8.73;;
14396;SDS011;50653;47.810;13.022;2023-08-24T08:26:41;10.23;;;9.53;;
14396;SDS011;50653;47.810;13.022;2023-08-24T08:29:07;10.60;;;9.77;;
14396;SDS011;50653;47.810;13.022;2023-08-24T08:31:33;12.73;;;8.60;;
14396;SDS011;50653;47.810;13.022;2023-08-24T08:33:58;11.30;;;9.10;;
14396;SDS011;50653;47.810;13.022;2023-08-24T08:36:24;13.70;;;10.77;;
14396;SDS011;50653;47.810;13.022;2023-08-24T08:38:50;10.20;;;9.37;;
14396;SDS011;50653;47.810;13.022;2023-08-24T08:41:16;10.97;;;9.83;;
14396;SDS011;50653;47.810;13.022;2023-08-24T08:43:54;10.13;;;9.00;;
14396;SDS011;50653;47.810;13.022;2023-08-24T08:46:21;10.60;;;9.77;;
14396;SDS011;50653;47.810;13.022;2023-08-24T08:48:47;12.10;;;11.00;;
14396;SDS011;50653;47.810;13.022;2023-08-24T08:51:15;10.57;;;9.87;;
14396;SDS011;50653;47.810;13.022;2023-08-24T08:53:42;9.53;;;8.93;;
14396;SDS011;50653;47.810;13.022;2023-08-24T08:56:08;10.17;;;9.47;;
14396;SDS011;50653;47.810;13.022;2023-08-24T08:58:34;10.33;;;9.53;;
14396;SDS011;50653;47.810;13.022;2023-08-24T09:01:04;10.93;;;9.77;;
14396;SDS011;50653;47.810;13.022;2023-08-24T09:03:31;9.70;;;8.90;;
14396;SDS011;50653;47.810;13.022;2023-08-24T09:05:57;9.43;;;8.63;;
14396;SDS011;50653;47.810;13.022;2023-08-24T09:08:24;20.67;;;9.07;;
14396;SDS011;50653;47.810;13.022;2023-08-24T09:10:51;9.37;;;8.80;;
14396;SDS011;50653;47.810;13.022;2023-08-24T09:13:17;10.40;;;9.50;;
14396;SDS011;50653;47.810;13.022;2023-08-24T09:15:42;9.87;;;9.00;;
14396;SDS011;50653;47.810;13.022;2023-08-24T09:18:08;9.80;;;8.90;;
14396;SDS011;50653;47.810;13.022;2023-08-24T09:20:34;15.87;;;9.97;;
14396;SDS011;50653;47.810;13.022;2023-08-24T09:23:00;8.87;;;8.07;;
14396;SDS011;50653;47.810;13.022;2023-08-24T09:25:25;8.97;;;8.27;;
14396;SDS011;50653;47.810;13.022;2023-08-24T09:27:57;10.17;;;9.13;;
14396;SDS011;50653;47.810;13.022;2023-08-24T09:30:28;9.13;;;8.43;;
14396;SDS011;50653;47.810;13.022;2023-08-24T09:32:55;10.73;;;9.60;;
14396;SDS011;50653;47.810;13.022;2023-08-24T09:35:25;10.10;;;8.10;;
14396;SDS011;50653;47.810;13.022;2023-08-24T09:37:51;9.20;;;8.60;;
14396;SDS011;50653;47.810;13.022;2023-08-24T09:40:23;8.80;;;8.20;;
14396;SDS011;50653;47.810;13.022;2023-08-24T09:42:49;11.03;;;9.90;;
14396;SDS011;50653;47.810;13.022;2023-08-24T09:45:15;9.17;;;8.40;;
14396;SDS011;50653;47.810;13.022;2023-08-24T09:47:50;14.30;;;10.37;;
14396;SDS011;50653;47.810;13.022;2023-08-24T09:50:19;11.27;;;10.13;;
14396;SDS011;50653;47.810;13.022;2023-08-24T09:52:45;8.93;;;8.30;;
14396;SDS011;50653;47.810;13.022;2023-08-24T09:55:13;10.20;;;9.20;;
14396;SDS011;50653;47.810;13.022;2023-08-24T09:57:44;10.27;;;9.23;;
14396;SDS011;50653;47.810;13.022;2023-08-24T10:00:13;11.27;;;10.07;;
14396;SDS011;50653;47.810;13.022;2023-08-24T10:02:49;11.03;;;10.07;;
14396;SDS011;50653;47.810;13.022;2023-08-24T10:05:19;23.23;;;10.07;;
14396;SDS011;50653;47.810;13.022;2023-08-24T10:07:52;19.03;;;10.07;;
14396;SDS011;50653;47.810;13.022;2023-08-24T10:10:21;11.47;;;10.70;;
14396;SDS011;50653;47.810;13.022;2023-08-24T10:12:53;14.70;;;10.67;;
14396;SDS011;50653;47.810;13.022;2023-08-24T10:15:24;11.77;;;10.77;;
14396;SDS011;50653;47.810;13.022;2023-08-24T10:17:51;11.50;;;10.60;;
14396;SDS011;50653;47.810;13.022;2023-08-24T10:20:21;13.00;;;11.67;;
14396;SDS011;50653;47.810;13.022;2023-08-24T10:22:47;13.03;;;10.90;;
14396;SDS011;50653;47.810;13.022;2023-08-24T10:25:16;11.40;;;10.63;;
14396;SDS011;50653;47.810;13.022;2023-08-24T10:27:43;11.77;;;10.73;;
14396;SDS011;50653;47.810;13.022;2023-08-24T10:30:11;11.20;;;10.20;;
14396;SDS011;50653;47.810;13.022;2023-08-24T10:32:38;11.77;;;10.47;;
14396;SDS011;50653;47.810;13.022;2023-08-24T10:35:06;11.40;;;10.57;;
14396;SDS011;50653;47.810;13.022;2023-08-24T10:37:32;11.37;;;10.57;;
14396;SDS011;50653;47.810;13.022;2023-08-24T10:39:59;11.23;;;10.27;;
14396;SDS011;50653;47.810;13.022;2023-08-24T10:42:25;10.07;;;9.47;;
14396;SDS011;50653;47.810;13.022;2023-08-24T10:44:52;11.53;;;10.60;;
14396;SDS011;50653;47.810;13.022;2023-08-24T10:47:21;9.57;;;8.93;;
14396;SDS011;50653;47.810;13.022;2023-08-24T10:52:23;10.67;;;9.67;;
14396;SDS011;50653;47.810;13.022;2023-08-24T10:55:00;10.43;;;9.43;;
14396;SDS011;50653;47.810;13.022;2023-08-24T10:57:34;11.10;;;10.40;;
14396;SDS011;50653;47.810;13.022;2023-08-24T11:00:03;10.27;;;9.47;;
14396;SDS011;50653;47.810;13.022;2023-08-24T11:07:48;11.80;;;10.50;;
14396;SDS011;50653;47.810;13.022;2023-08-24T11:10:15;10.00;;;9.17;;
14396;SDS011;50653;47.810;13.022;2023-08-24T11:15:38;15.43;;;10.27;;
14396;SDS011;50653;47.810;13.022;2023-08-24T11:18:11;15.37;;;9.57;;
14396;SDS011;50653;47.810;13.022;2023-08-24T11:20:45;11.03;;;10.10;;
14396;SDS011;50653;47.810;13.022;2023-08-24T11:23:12;9.43;;;8.70;;
14396;SDS011;50653;47.810;13.022;2023-08-24T11:25:40;9.17;;;8.57;;
14396;SDS011;50653;47.810;13.022;2023-08-24T11:28:05;10.20;;;9.30;;
14396;SDS011;50653;47.810;13.022;2023-08-24T11:30:31;10.10;;;9.40;;
14396;SDS011;50653;47.810;13.022;2023-08-24T11:33:01;9.73;;;9.03;;
14396;SDS011;50653;47.810;13.022;2023-08-24T11:35:27;9.77;;;9.17;;
14396;SDS011;50653;47.810;13.022;2023-08-24T11:37:53;10.53;;;9.53;;
14396;SDS011;50653;47.810;13.022;2023-08-24T11:40:22;10.83;;;9.83;;
14396;SDS011;50653;47.810;13.022;2023-08-24T11:42:54;10.97;;;10.10;;
14396;SDS011;50653;47.810;13.022;2023-08-24T11:45:20;8.70;;;8.00;;
14396;SDS011;50653;47.810;13.022;2023-08-24T11:47:47;8.70;;;8.20;;
14396;SDS011;50653;47.810;13.022;2023-08-24T11:50:13;10.47;;;9.67;;
14396;SDS011;50653;47.810;13.022;2023-08-24T11:52:39;9.50;;;8.70;;
14396;SDS011;50653;47.810;13.022;2023-08-24T11:55:06;10.60;;;9.60;;
14396;SDS011;50653;47.810;13.022;2023-08-24T11:57:33;10.13;;;9.33;;
14396;SDS011;50653;47.810;13.022;2023-08-24T12:00:03;10.43;;;8.63;;
14396;SDS011;50653;47.810;13.022;2023-08-24T12:02:30;9.87;;;8.07;;
14396;SDS011;50653;47.810;13.022;2023-08-24T12:04:57;9.03;;;8.40;;
14396;SDS011;50653;47.810;13.022;2023-08-24T12:07:23;10.73;;;8.80;;
14396;SDS011;50653;47.810;13.022;2023-08-24T12:09:49;8.90;;;8.40;;
14396;SDS011;50653;47.810;13.022;2023-08-24T12:12:18;9.73;;;9.00;;
14396;SDS011;50653;47.810;13.022;2023-08-24T12:14:48;9.73;;;8.80;;
14396;SDS011;50653;47.810;13.022;2023-08-24T12:17:15;8.53;;;7.93;;
14396;SDS011;50653;47.810;13.022;2023-08-24T12:19:42;8.63;;;7.83;;
14396;SDS011;50653;47.810;13.022;2023-08-24T12:22:20;8.37;;;7.87;;
14396;SDS011;50653;47.810;13.022;2023-08-24T12:24:47;7.53;;;7.00;;
14396;SDS011;50653;47.810;13.022;2023-08-24T12:27:19;12.30;;;8.50;;
14396;SDS011;50653;47.810;13.022;2023-08-24T12:29:46;9.53;;;7.33;;
14396;SDS011;50653;47.810;13.022;2023-08-24T12:32:12;7.80;;;7.37;;
14396;SDS011;50653;47.810;13.022;2023-08-24T12:34:38;9.27;;;8.57;;
14396;SDS011;50653;47.810;13.022;2023-08-24T12:37:03;15.57;;;8.20;;
14396;SDS011;50653;47.810;13.022;2023-08-24T12:39:34;9.07;;;8.30;;
14396;SDS011;50653;47.810;13.022;2023-08-24T12:42:01;8.70;;;7.87;;
14396;SDS011;50653;47.810;13.022;2023-08-24T12:44:27;7.73;;;7.13;;
14396;SDS011;50653;47.810;13.022;2023-08-24T12:46:53;8.20;;;7.70;;
14396;SDS011;50653;47.810;13.022;2023-08-24T12:49:19;8.43;;;7.80;;
14396;SDS011;50653;47.810;13.022;2023-08-24T12:51:44;10.30;;;8.43;;
14396;SDS011;50653;47.810;13.022;2023-08-24T12:54:10;9.00;;;8.10;;
14396;SDS011;50653;47.810;13.022;2023-08-24T12:56:36;9.70;;;6.60;;
14396;SDS011;50653;47.810;13.022;2023-08-24T12:59:03;12.57;;;7.97;;
14396;SDS011;50653;47.810;13.022;2023-08-24T13:01:28;12.20;;;7.63;;
14396;SDS011;50653;47.810;13.022;2023-08-24T13:03:54;7.77;;;6.90;;
14396;SDS011;50653;47.810;13.022;2023-08-24T13:06:20;8.97;;;6.90;;
14396;SDS011;50653;47.810;13.022;2023-08-24T13:08:46;10.83;;;6.40;;
14396;SDS011;50653;47.810;13.022;2023-08-24T13:11:11;7.50;;;5.73;;
14396;SDS011;50653;47.810;13.022;2023-08-24T13:13:37;10.43;;;7.10;;
14396;SDS011;50653;47.810;13.022;2023-08-24T13:16:03;8.03;;;7.23;;
14396;SDS011;50653;47.810;13.022;2023-08-24T13:18:28;8.03;;;6.60;;
14396;SDS011;50653;47.810;13.022;2023-08-24T13:20:54;9.20;;;6.63;;
14396;SDS011;50653;47.810;13.022;2023-08-24T13:23:19;11.37;;;8.00;;
14396;SDS011;50653;47.810;13.022;2023-08-24T13:25:45;17.60;;;7.57;;
14396;SDS011;50653;47.810;13.022;2023-08-24T13:28:11;6.30;;;5.70;;
14396;SDS011;50653;47.810;13.022;2023-08-24T13:30:37;9.57;;;6.53;;
14396;SDS011;50653;47.810;13.022;2023-08-24T13:33:02;13.50;;;7.10;;
14396;SDS011;50653;47.810;13.022;2023-08-24T13:35:28;10.40;;;6.10;;
14396;SDS011;50653;47.810;13.022;2023-08-24T13:37:54;6.67;;;6.07;;
14396;SDS011;50653;47.810;13.022;2023-08-24T13:40:20;6.17;;;5.33;;
14396;SDS011;50653;47.810;13.022;2023-08-24T13:42:45;8.60;;;7.80;;
14396;SDS011;50653;47.810;13.022;2023-08-24T13:45:11;7.80;;;6.87;;
14396;SDS011;50653;47.810;13.022;2023-08-24T13:47:37;10.13;;;7.53;;
14396;SDS011;50653;47.810;13.022;2023-08-24T13:50:02;9.33;;;6.87;;
14396;SDS011;50653;47.810;13.022;2023-08-24T13:52:28;5.63;;;5.10;;
14396;SDS011;50653;47.810;13.022;2023-08-24T13:54:54;7.30;;;6.60;;
14396;SDS011;50653;47.810;13.022;2023-08-24T13:57:19;7.53;;;6.63;;
14396;SDS011;50653;47.810;13.022;2023-08-24T13:59:45;10.00;;;6.90;;
14396;SDS011;50653;47.810;13.022;2023-08-24T14:02:11;7.90;;;7.13;;
14396;SDS011;50653;47.810;13.022;2023-08-24T14:04:37;8.53;;;6.70;;
14396;SDS011;50653;47.810;13.022;2023-08-24T14:07:03;6.43;;;5.90;;
14396;SDS011;50653;47.810;13.022;2023-08-24T14:09:29;7.87;;;5.50;;
14396;SDS011;50653;47.810;13.022;2023-08-24T14:11:54;6.87;;;6.20;;
14396;SDS011;50653;47.810;13.022;2023-08-24T14:14:21;7.73;;;6.90;;
14396;SDS011;50653;47.810;13.022;2023-08-24T14:16:48;6.13;;;5.70;;
14396;SDS011;50653;47.810;13.022;2023-08-24T14:19:19;10.40;;;7.23;;
14396;SDS011;50653;47.810;13.022;2023-08-24T14:21:44;6.20;;;5.77;;
14396;SDS011;50653;47.810;13.022;2023-08-24T14:24:10;9.43;;;7.50;;
14396;SDS011;50653;47.810;13.022;2023-08-24T14:26:36;9.43;;;7.50;;
14396;SDS011;50653;47.810;13.022;2023-08-24T14:29:04;7.10;;;6.13;;
14396;SDS011;50653;47.810;13.022;2023-08-24T14:31:30;9.63;;;8.50;;
14396;SDS011;50653;47.810;13.022;2023-08-24T14:33:56;10.83;;;7.47;;
14396;SDS011;50653;47.810;13.022;2023-08-24T14:36:22;9.57;;;8.67;;
14396;SDS011;50653;47.810;13.022;2023-08-24T14:38:49;8.07;;;7.40;;